Etusivu
METAR-TAF:

METAR-TAF

Lentoasemat :

Blanding, Utah, Yhdysvallat

Leveyspiiri: 37-35-00N, Pituuspiiri: 109-29-00W, korkeus merenpinnasta: 1789 m

Tämänhetkinen sää

Tämä raportti tehtiin 32 minuuttia sitten, kello 12.35 UTC
Tuuli 6 kn pohjoisen/luoteesta
Lämpötila 1°C
Kosteus 47%
Ilmanpaine 1028 hPa
Näkyvyys: 16.1 km

METAR: KBDG 151235Z AUTO 33006KT 10SM 01/M09 A3037 RMK AO1 T00121088

Aika: 06:07 (13:07 UTC)


TAF: puuttuu

Säähavainnot ja -ennusteet yli 4000 lentoasemalta (METAR- ja TAF-raportit).

Käytössä olevat sääasemat on merkitty karttaan keltaisilla ja punaisilla pisteillä.

Aseta hiiri pisteen päälle nähdäksesi sääaseman nimen.

Klikkaa sitten nähdäksesi säähavainnot ja -ennusteet.

Kartan vaihtaminen: klikkaa mustalla rastilla varustettuja vihreitä pisteitä, niin voit zoomata sisään; viivalla varustettua vihreää pistettä, niin voit zoomata ulos tai vihreitä nuolia, niin pääset viereisille kartoille.


METAR-TAF: